createdAt,value
2023-02-13T00:01:39.490Z,58.25
2023-02-13T00:04:09.553Z,58.40
2023-02-13T00:06:39.491Z,58.41
2023-02-13T00:09:11.245Z,58.70
2023-02-13T00:11:39.827Z,58.67
2023-02-13T00:14:08.286Z,58.49
2023-02-13T00:16:37.729Z,59.34
2023-02-13T00:19:06.196Z,58.54
2023-02-13T00:21:38.885Z,58.44
2023-02-13T00:24:07.864Z,58.86
2023-02-13T00:26:36.361Z,58.72
2023-02-13T00:29:05.046Z,59.60
2023-02-13T00:31:33.589Z,58.49
2023-02-13T00:34:02.314Z,59.12
2023-02-13T00:36:30.877Z,58.86
2023-02-13T00:39:00.979Z,58.96
2023-02-13T00:41:29.403Z,60.02
2023-02-13T00:43:57.807Z,60.57
2023-02-13T00:46:26.430Z,61.07
2023-02-13T00:48:55.056Z,60.10
2023-02-13T00:51:23.148Z,59.56
2023-02-13T00:53:55.644Z,59.67
2023-02-13T00:56:25.673Z,59.22
2023-02-13T00:58:54.130Z,58.63
2023-02-13T01:01:22.575Z,58.17
2023-02-13T01:03:51.108Z,58.36
2023-02-13T01:06:19.493Z,58.61
2023-02-13T01:08:48.182Z,59.81
2023-02-13T01:11:19.067Z,59.83
2023-02-13T01:13:49.022Z,59.30
2023-02-13T01:16:19.914Z,59.03
2023-02-13T01:18:48.852Z,58.95
2023-02-13T01:21:19.608Z,58.51
2023-02-13T01:23:48.493Z,58.34
2023-02-13T01:26:20.156Z,57.31
2023-02-13T01:28:52.973Z,58.64
2023-02-13T01:31:21.824Z,58.50
2023-02-13T01:33:52.143Z,58.62
2023-02-13T01:36:23.558Z,59.23
2023-02-13T01:38:55.341Z,59.57
2023-02-13T01:41:26.574Z,58.60
2023-02-13T01:43:58.909Z,59.05
2023-02-13T01:46:31.159Z,59.22
2023-02-13T01:49:02.822Z,59.63
2023-02-13T01:51:35.455Z,59.17
2023-02-13T01:54:07.352Z,59.51
2023-02-13T01:56:39.050Z,60.05
2023-02-13T01:59:11.458Z,59.76
2023-02-13T02:01:40.690Z,60.00
2023-02-13T02:04:12.374Z,58.99
2023-02-13T02:06:44.325Z,58.84
2023-02-13T02:09:18.566Z,57.62
2023-02-13T02:11:53.729Z,58.24
2023-02-13T02:14:23.876Z,57.89
2023-02-13T02:16:53.931Z,58.36
2023-02-13T02:19:33.962Z,59.00
2023-02-13T02:22:30.167Z,58.21
2023-02-13T02:25:31.877Z,58.49
2023-02-13T02:28:25.073Z,57.26
2023-02-13T02:31:27.804Z,58.07
2023-02-13T02:34:14.220Z,58.65
2023-02-13T02:36:58.030Z,58.45
2023-02-13T02:39:33.721Z,58.84
2023-02-13T02:42:12.245Z,59.29
2023-02-13T02:44:46.791Z,59.02
2023-02-13T02:47:41.358Z,57.70
2023-02-13T02:50:35.637Z,57.00
2023-02-13T02:53:18.907Z,57.21
2023-02-13T02:55:52.875Z,58.24
2023-02-13T02:58:42.453Z,58.02
2023-02-13T03:01:34.275Z,58.72
2023-02-13T03:04:21.740Z,58.81
2023-02-13T03:06:55.366Z,60.38
2023-02-13T03:09:46.087Z,60.85
2023-02-13T03:12:36.230Z,61.38
2023-02-13T03:15:04.926Z,60.87
2023-02-13T03:17:51.514Z,60.74
2023-02-13T03:20:51.874Z,60.70
2023-02-13T03:23:30.598Z,60.55
2023-02-13T03:26:26.256Z,61.18
2023-02-13T03:29:17.061Z,60.96
2023-02-13T03:32:01.671Z,61.00
2023-02-13T03:34:55.315Z,61.01
2023-02-13T03:37:48.515Z,61.21
2023-02-13T03:40:24.978Z,60.73
2023-02-13T03:42:56.400Z,60.59
2023-02-13T03:45:47.712Z,60.22
2023-02-13T03:48:33.501Z,60.42
2023-02-13T03:51:03.571Z,61.11
2023-02-13T03:53:37.231Z,61.38
2023-02-13T03:56:30.095Z,60.72
2023-02-13T03:59:16.286Z,61.49
2023-02-13T04:01:50.322Z,61.21
2023-02-13T04:04:26.947Z,61.27
2023-02-13T04:06:59.740Z,61.64
2023-02-13T04:09:30.602Z,61.89
2023-02-13T04:12:08.575Z,61.68
2023-02-13T04:14:46.123Z,61.14
2023-02-13T04:17:19.924Z,60.89
2023-02-13T04:19:48.790Z,61.13
2023-02-13T04:22:17.253Z,61.12
2023-02-13T04:24:46.040Z,61.35
2023-02-13T04:27:17.984Z,61.85
2023-02-13T04:29:46.507Z,61.30
2023-02-13T04:32:15.067Z,62.05
2023-02-13T04:34:43.443Z,62.79
2023-02-13T04:37:11.812Z,63.71
2023-02-13T04:39:39.999Z,62.35
2023-02-13T04:42:08.355Z,62.00
2023-02-13T04:44:37.885Z,61.62
2023-02-13T04:47:06.516Z,62.56
2023-02-13T04:49:34.661Z,62.02
2023-02-13T04:52:03.115Z,62.61
2023-02-13T04:54:31.515Z,61.85
2023-02-13T04:56:59.676Z,61.42
2023-02-13T04:59:28.069Z,61.05
2023-02-13T05:01:59.326Z,61.04
2023-02-13T05:04:29.045Z,61.52
2023-02-13T05:06:57.717Z,62.19
2023-02-13T05:09:26.196Z,62.49
2023-02-13T05:11:55.525Z,63.30
2023-02-13T05:14:23.884Z,63.22
2023-02-13T05:16:52.049Z,63.10
2023-02-13T05:19:21.883Z,62.90
2023-02-13T05:22:07.586Z,63.57
2023-02-13T05:24:36.085Z,63.89
2023-02-13T05:27:04.180Z,64.01
2023-02-13T05:29:31.678Z,64.01
2023-02-13T05:32:01.051Z,62.94
2023-02-13T05:34:31.378Z,63.16
2023-02-13T05:37:00.724Z,64.43
2023-02-13T05:39:29.095Z,63.36
2023-02-13T05:41:57.223Z,63.46
2023-02-13T05:44:25.551Z,63.15
2023-02-13T05:46:54.085Z,61.69
2023-02-13T05:49:23.126Z,62.07
2023-02-13T05:51:53.333Z,62.44
2023-02-13T05:54:21.901Z,62.68
2023-02-13T05:56:50.351Z,62.84
2023-02-13T05:59:18.588Z,63.25
2023-02-13T06:01:46.961Z,63.49
2023-02-13T06:04:15.363Z,63.39
2023-02-13T06:06:44.998Z,62.80
2023-02-13T06:09:14.918Z,62.36
2023-02-13T06:11:43.455Z,62.94
2023-02-13T06:14:12.532Z,62.42
2023-02-13T06:16:40.992Z,62.36
2023-02-13T06:19:09.354Z,62.50
2023-02-13T06:21:37.977Z,62.05
2023-02-13T06:24:07.455Z,61.52
2023-02-13T06:26:37.396Z,62.58
2023-02-13T06:29:06.848Z,62.99
2023-02-13T06:31:35.672Z,61.84
2023-02-13T06:34:05.174Z,62.91
2023-02-13T06:36:37.623Z,61.59
2023-02-13T06:39:07.797Z,60.80
2023-02-13T06:41:37.846Z,60.32
2023-02-13T06:44:07.317Z,60.98
2023-02-13T06:46:35.913Z,61.01
2023-02-13T06:49:04.411Z,62.08
2023-02-13T06:51:33.117Z,61.88
2023-02-13T06:54:01.561Z,61.26
2023-02-13T06:56:29.812Z,61.43
2023-02-13T06:58:59.642Z,60.56
2023-02-13T07:01:28.158Z,59.83
2023-02-13T07:03:57.759Z,61.00
2023-02-13T07:06:26.435Z,61.66
2023-02-13T07:08:56.024Z,61.33
2023-02-13T07:11:26.395Z,61.24
2023-02-13T07:13:54.944Z,61.87
2023-02-13T07:16:24.891Z,60.51
2023-02-13T07:18:53.355Z,60.61
2023-02-13T07:21:21.706Z,61.69
2023-02-13T07:23:50.296Z,61.75
2023-02-13T07:26:18.405Z,61.19
2023-02-13T07:28:46.759Z,61.37
2023-02-13T07:31:15.287Z,60.86
2023-02-13T07:33:45.584Z,60.96
2023-02-13T07:36:14.036Z,61.54
2023-02-13T07:38:42.536Z,61.71
2023-02-13T07:41:10.801Z,61.37
2023-02-13T07:43:39.156Z,60.37
2023-02-13T07:46:07.675Z,61.24
2023-02-13T07:48:36.210Z,60.09
2023-02-13T07:51:06.408Z,59.24
2023-02-13T07:53:34.863Z,60.21
2023-02-13T07:56:07.430Z,59.55
2023-02-13T07:58:36.897Z,59.25
2023-02-13T08:01:10.873Z,60.38
2023-02-13T08:03:40.031Z,60.13
2023-02-13T08:06:11.045Z,60.04
2023-02-13T08:08:39.823Z,60.31
2023-02-13T08:11:27.064Z,59.99
2023-02-13T08:13:55.602Z,60.17
2023-02-13T08:16:24.011Z,59.75
2023-02-13T08:18:52.536Z,60.53
2023-02-13T08:21:22.572Z,59.54
2023-02-13T08:23:52.098Z,60.62
2023-02-13T08:26:20.626Z,61.93
2023-02-13T08:28:48.971Z,62.12
2023-02-13T08:31:18.455Z,60.55
2023-02-13T08:33:47.629Z,61.25
2023-02-13T08:36:15.808Z,60.95
2023-02-13T08:38:45.575Z,61.38
2023-02-13T08:41:14.097Z,60.30
2023-02-13T08:43:42.635Z,60.47
2023-02-13T08:46:11.048Z,60.61
2023-02-13T08:48:39.495Z,59.45
2023-02-13T08:51:08.987Z,58.47
2023-02-13T08:53:38.020Z,60.14
2023-02-13T08:56:08.373Z,59.53
2023-02-13T08:58:36.890Z,58.75
2023-02-13T09:01:07.852Z,58.59
2023-02-13T09:03:36.744Z,58.25
2023-02-13T09:06:05.825Z,58.50
2023-02-13T09:08:36.600Z,58.45
2023-02-13T09:11:07.856Z,58.17
2023-02-13T09:13:37.226Z,58.20
2023-02-13T09:16:10.217Z,57.84
2023-02-13T09:18:38.927Z,56.80
2023-02-13T09:21:07.941Z,55.41
2023-02-13T09:23:37.738Z,56.37
2023-02-13T09:26:09.974Z,55.45
2023-02-13T09:28:39.112Z,54.74
2023-02-13T09:31:08.522Z,55.58
2023-02-13T09:33:37.169Z,54.94
2023-02-13T09:36:06.890Z,56.46
2023-02-13T09:38:35.802Z,56.43
2023-02-13T09:41:09.719Z,57.01
2023-02-13T09:43:48.085Z,56.70
2023-02-13T09:46:20.472Z,55.25
2023-02-13T09:48:52.910Z,55.79
2023-02-13T09:51:23.820Z,57.50
2023-02-13T09:53:56.922Z,57.12
2023-02-13T09:56:39.203Z,55.96
2023-02-13T09:59:16.775Z,55.42
2023-02-13T10:01:49.125Z,57.03
2023-02-13T10:04:31.151Z,57.67
2023-02-13T10:07:12.488Z,57.70
2023-02-13T10:09:51.243Z,57.02
2023-02-13T10:12:31.815Z,56.92
2023-02-13T10:15:11.600Z,56.06
2023-02-13T10:17:44.245Z,57.20
2023-02-13T10:20:24.404Z,57.01
2023-02-13T10:22:57.931Z,57.75
2023-02-13T10:25:29.088Z,56.80
2023-02-13T10:28:05.614Z,57.80
2023-02-13T10:30:37.975Z,56.69
2023-02-13T10:33:20.698Z,55.44
2023-02-13T10:35:54.568Z,57.50
2023-02-13T10:38:25.038Z,58.29
2023-02-13T10:41:06.632Z,59.52
2023-02-13T10:43:48.294Z,58.97
2023-02-13T10:46:27.155Z,57.64
2023-02-13T10:49:14.855Z,58.03
2023-02-13T10:51:50.365Z,57.90
2023-02-13T10:54:30.652Z,57.48
2023-02-13T10:57:08.054Z,58.05
2023-02-13T10:59:56.660Z,57.71
2023-02-13T11:02:26.672Z,55.57
2023-02-13T11:05:00.658Z,55.98
2023-02-13T11:07:31.814Z,55.66
2023-02-13T11:10:14.601Z,56.40
2023-02-13T11:12:43.219Z,57.46
2023-02-13T11:15:25.836Z,57.40
2023-02-13T11:17:58.721Z,58.12
2023-02-13T11:20:32.917Z,58.53
2023-02-13T11:23:19.811Z,59.28
2023-02-13T11:26:00.866Z,58.83
2023-02-13T11:28:31.355Z,58.21
2023-02-13T11:31:14.756Z,58.94
2023-02-13T11:33:43.610Z,59.83
2023-02-13T11:36:16.467Z,59.98
2023-02-13T11:38:45.322Z,59.45
2023-02-13T11:41:15.152Z,58.13
2023-02-13T11:43:50.286Z,57.78
2023-02-13T11:46:23.417Z,58.56
2023-02-13T11:49:00.034Z,58.69
2023-02-13T11:51:40.105Z,59.94
2023-02-13T11:54:22.496Z,59.34
2023-02-13T11:57:08.050Z,58.79
2023-02-13T11:59:42.327Z,59.01
2023-02-13T12:02:18.782Z,58.03
2023-02-13T12:04:48.516Z,56.24
2023-02-13T12:07:21.483Z,56.29
2023-02-13T12:09:54.493Z,56.56
2023-02-13T12:12:31.017Z,57.51
2023-02-13T12:15:02.298Z,57.74
2023-02-13T12:17:38.155Z,56.46
2023-02-13T12:20:13.072Z,58.35
2023-02-13T12:22:54.865Z,57.10
2023-02-13T12:25:44.004Z,57.21
2023-02-13T12:28:16.371Z,56.75
2023-02-13T12:31:14.728Z,57.78
2023-02-13T12:34:02.008Z,58.31
2023-02-13T12:36:37.501Z,58.28
2023-02-13T12:39:19.040Z,59.29
2023-02-13T12:42:02.374Z,60.22
2023-02-13T12:44:51.743Z,60.02
2023-02-13T12:47:23.323Z,59.44
2023-02-13T12:50:28.775Z,60.46
2023-02-13T12:53:11.338Z,61.47
2023-02-13T12:55:56.597Z,61.83
2023-02-13T12:58:47.842Z,62.88
2023-02-13T13:01:25.387Z,63.05
2023-02-13T13:04:05.585Z,63.21
2023-02-13T13:06:50.292Z,63.37
2023-02-13T13:09:34.959Z,63.05
2023-02-13T13:12:23.719Z,64.14
2023-02-13T13:14:59.805Z,63.44
2023-02-13T13:17:48.656Z,63.31
2023-02-13T13:20:48.663Z,64.06
2023-02-13T13:23:22.699Z,63.78
2023-02-13T13:26:01.000Z,63.12
2023-02-13T13:28:35.557Z,62.56
2023-02-13T13:31:05.566Z,62.00
2023-02-13T13:33:35.296Z,62.75
2023-02-13T13:36:09.059Z,62.80
2023-02-13T13:38:51.968Z,62.92
2023-02-13T13:41:29.766Z,63.26
2023-02-13T13:44:17.568Z,64.31
2023-02-13T13:46:56.441Z,63.61
2023-02-13T13:49:35.754Z,63.79
2023-02-13T13:52:22.016Z,64.43
2023-02-13T13:54:53.815Z,63.48
2023-02-13T13:57:23.804Z,62.64
2023-02-13T14:00:27.563Z,63.71
2023-02-13T14:03:38.853Z,63.28
2023-02-13T14:06:09.960Z,65.59
2023-02-13T14:09:24.116Z,65.65
2023-02-13T14:11:58.873Z,64.08
2023-02-13T14:14:53.293Z,64.55
2023-02-13T14:17:54.627Z,65.13
2023-02-13T14:20:39.408Z,64.86
2023-02-13T14:23:19.222Z,65.01
2023-02-13T14:25:48.050Z,64.95
2023-02-13T14:28:24.866Z,63.89
2023-02-13T14:31:05.389Z,64.12
2023-02-13T14:33:34.930Z,64.39
2023-02-13T14:36:08.436Z,64.96
2023-02-13T14:38:37.888Z,64.34
2023-02-13T14:41:07.532Z,64.91
2023-02-13T14:43:51.419Z,64.78
2023-02-13T14:46:29.234Z,65.46
2023-02-13T14:49:03.017Z,66.13
2023-02-13T14:51:37.509Z,65.45
2023-02-13T14:54:15.240Z,65.32
2023-02-13T14:56:47.795Z,65.85
2023-02-13T14:59:20.252Z,65.75
2023-02-13T15:01:53.043Z,66.04
2023-02-13T15:04:31.330Z,65.34
2023-02-13T15:07:03.493Z,65.58
2023-02-13T15:09:41.772Z,65.40
2023-02-13T15:12:30.381Z,66.15
2023-02-13T15:15:01.592Z,64.81
2023-02-13T15:17:40.402Z,64.80
2023-02-13T15:20:20.711Z,66.03
2023-02-13T15:22:49.861Z,65.43
2023-02-13T15:25:27.033Z,66.63
2023-02-13T15:27:56.824Z,66.58
2023-02-13T15:30:28.617Z,65.66
2023-02-13T15:32:58.752Z,66.47
2023-02-13T15:35:29.290Z,65.61
2023-02-13T15:37:58.719Z,65.05
2023-02-13T15:40:29.652Z,65.89
2023-02-13T15:42:59.438Z,65.87
2023-02-13T15:45:31.293Z,65.98
2023-02-13T15:48:00.146Z,66.73
2023-02-13T15:50:32.424Z,66.69
2023-02-13T15:53:04.067Z,66.91
2023-02-13T15:55:36.370Z,66.93
2023-02-13T15:58:08.085Z,66.79
2023-02-13T16:00:41.079Z,67.54
2023-02-13T16:03:17.112Z,67.90
2023-02-13T16:05:50.308Z,68.88
2023-02-13T16:08:33.890Z,68.06
2023-02-13T16:11:22.224Z,67.73
2023-02-13T16:14:10.638Z,68.73
2023-02-13T16:16:45.992Z,68.76
2023-02-13T16:19:33.002Z,69.21
2023-02-13T16:22:07.642Z,67.67
2023-02-13T16:24:37.733Z,68.00
2023-02-13T16:27:17.694Z,68.80
2023-02-13T16:29:55.125Z,67.10
2023-02-13T16:32:32.464Z,69.10
2023-02-13T16:35:33.308Z,69.16
2023-02-13T16:38:03.382Z,68.99
2023-02-13T16:40:41.457Z,69.03
2023-02-13T16:43:37.712Z,69.56
2023-02-13T16:46:22.259Z,70.06
2023-02-13T16:49:05.720Z,70.28
2023-02-13T16:51:39.028Z,69.58
2023-02-13T16:54:30.797Z,68.92
2023-02-13T16:57:18.319Z,69.38
2023-02-13T16:59:54.676Z,68.63
2023-02-13T17:02:25.641Z,69.71
2023-02-13T17:04:59.543Z,69.40
2023-02-13T17:07:31.297Z,69.72
2023-02-13T17:10:03.606Z,69.53
2023-02-13T17:12:35.483Z,70.07
2023-02-13T17:15:04.592Z,69.43
2023-02-13T17:17:33.896Z,69.98
2023-02-13T17:20:04.550Z,70.26
2023-02-13T17:22:37.098Z,69.65
2023-02-13T17:25:09.591Z,69.86
2023-02-13T17:27:38.184Z,69.79
2023-02-13T17:30:08.429Z,70.18
2023-02-13T17:32:38.731Z,69.60
2023-02-13T17:35:09.265Z,68.85
2023-02-13T17:37:39.956Z,68.61
2023-02-13T17:40:11.044Z,67.99
2023-02-13T17:42:39.763Z,68.50
2023-02-13T17:45:08.756Z,67.20
2023-02-13T17:47:37.346Z,67.38
2023-02-13T17:50:10.437Z,67.85
2023-02-13T17:52:41.495Z,68.78
2023-02-13T17:55:18.008Z,69.58
2023-02-13T17:57:46.626Z,68.75
2023-02-13T18:00:16.184Z,67.85
2023-02-13T18:02:45.155Z,67.75
2023-02-13T18:05:13.800Z,69.90
2023-02-13T18:07:44.174Z,69.44
2023-02-13T18:10:15.964Z,68.78
2023-02-13T18:12:45.736Z,68.91
2023-02-13T18:15:14.928Z,68.87
2023-02-13T18:17:43.865Z,69.35
2023-02-13T18:20:14.822Z,69.33
2023-02-13T18:22:45.028Z,69.17
2023-02-13T18:25:14.304Z,68.61
2023-02-13T18:27:42.935Z,67.91
2023-02-13T18:30:12.746Z,67.47
2023-02-13T18:32:41.500Z,68.01
2023-02-13T18:35:10.361Z,68.06
2023-02-13T18:37:39.366Z,69.72
2023-02-13T18:40:15.124Z,69.05
2023-02-13T18:42:44.487Z,68.75
2023-02-13T18:45:13.416Z,68.83
2023-02-13T18:47:44.195Z,69.69
2023-02-13T18:50:12.652Z,69.45
2023-02-13T18:52:41.131Z,68.24
2023-02-13T18:55:11.031Z,67.83
2023-02-13T18:57:43.489Z,68.20
2023-02-13T19:00:14.377Z,67.89
2023-02-13T19:02:42.948Z,68.47
2023-02-13T19:05:11.547Z,67.80
2023-02-13T19:07:39.872Z,67.52
2023-02-13T19:10:10.853Z,67.45
2023-02-13T19:12:39.492Z,67.41
2023-02-13T19:15:08.280Z,68.00
2023-02-13T19:17:38.561Z,68.06
2023-02-13T19:20:08.593Z,67.80
2023-02-13T19:22:37.346Z,68.52
2023-02-13T19:25:06.206Z,67.06
2023-02-13T19:27:39.278Z,67.33
2023-02-13T19:30:14.487Z,67.58
2023-02-13T19:32:43.167Z,68.18
2023-02-13T19:35:12.065Z,67.33
2023-02-13T19:37:44.095Z,67.51
2023-02-13T19:40:15.073Z,67.11
2023-02-13T19:42:47.608Z,67.31
2023-02-13T19:45:16.442Z,67.20
2023-02-13T19:47:44.997Z,66.80
2023-02-13T19:50:13.391Z,67.46
2023-02-13T19:52:41.953Z,67.57
2023-02-13T19:55:12.727Z,66.71
2023-02-13T19:57:41.545Z,68.67
2023-02-13T20:00:12.092Z,68.31
2023-02-13T20:02:40.923Z,69.16
2023-02-13T20:05:10.087Z,69.57
2023-02-13T20:07:38.569Z,70.12
2023-02-13T20:10:08.217Z,71.76
2023-02-13T20:12:36.964Z,71.55
2023-02-13T20:15:06.307Z,72.16
2023-02-13T20:17:39.059Z,71.64
2023-02-13T20:20:08.936Z,72.56
2023-02-13T20:22:37.423Z,74.80
2023-02-13T20:25:06.745Z,73.91
2023-02-13T20:30:14.589Z,76.03
2023-02-13T20:32:44.606Z,76.53
2023-02-13T20:35:13.303Z,75.47
2023-02-13T20:37:42.895Z,74.08
2023-02-13T20:40:12.112Z,76.45
2023-02-13T20:42:40.683Z,75.72
2023-02-13T20:45:10.066Z,75.89
2023-02-13T20:47:38.530Z,75.40
2023-02-13T20:50:09.376Z,75.36
2023-02-13T20:52:38.066Z,75.83
2023-02-13T20:55:07.582Z,75.61
2023-02-13T20:57:37.391Z,75.77
2023-02-13T21:00:07.377Z,76.08
2023-02-13T21:02:35.985Z,75.45
2023-02-13T21:05:04.658Z,75.60
2023-02-13T21:07:34.640Z,75.54
2023-02-13T21:10:03.207Z,75.32
2023-02-13T21:12:35.112Z,75.63
2023-02-13T21:15:03.956Z,76.85
2023-02-13T21:17:32.794Z,75.79
2023-02-13T21:20:01.265Z,75.62
2023-02-13T21:22:31.585Z,76.01
2023-02-13T21:25:01.577Z,75.91
2023-02-13T21:27:33.850Z,75.14
2023-02-13T21:30:02.455Z,74.92
2023-02-13T21:32:32.788Z,74.97
2023-02-13T21:35:01.349Z,74.90
2023-02-13T21:37:32.149Z,75.19
2023-02-13T21:40:04.761Z,75.08
2023-02-13T21:42:33.436Z,75.13
2023-02-13T21:45:01.844Z,74.26
2023-02-13T21:47:32.329Z,74.50
2023-02-13T21:50:04.485Z,73.63
2023-02-13T21:52:33.175Z,73.82
2023-02-13T21:55:06.501Z,74.71
2023-02-13T21:57:40.013Z,74.08
2023-02-13T22:00:10.740Z,74.24
2023-02-13T22:02:42.194Z,74.23
2023-02-13T22:05:10.695Z,74.21
2023-02-13T22:07:52.923Z,74.13
2023-02-13T22:10:22.868Z,73.93
2023-02-13T22:12:56.506Z,74.14
2023-02-13T22:15:25.172Z,73.94
2023-02-13T22:17:53.628Z,74.22
2023-02-13T22:20:23.036Z,73.90
2023-02-13T22:22:52.031Z,73.83
2023-02-13T22:25:20.602Z,74.25
2023-02-13T22:27:50.360Z,74.64
2023-02-13T22:30:22.381Z,74.76
2023-02-13T22:32:50.983Z,75.35
2023-02-13T22:35:19.464Z,74.93
2023-02-13T22:37:48.024Z,75.21
2023-02-13T22:40:16.709Z,74.54
2023-02-13T22:42:44.976Z,73.96
2023-02-13T22:45:14.797Z,74.63
2023-02-13T22:47:43.421Z,73.65
2023-02-13T22:50:12.096Z,73.87
2023-02-13T22:52:40.562Z,73.63
2023-02-13T22:55:09.502Z,73.44
2023-02-13T22:57:38.276Z,74.52
2023-02-13T23:00:08.897Z,75.04
2023-02-13T23:02:39.238Z,74.71
2023-02-13T23:05:08.634Z,75.21
2023-02-13T23:07:39.838Z,74.76
2023-02-13T23:10:09.358Z,73.90
2023-02-13T23:12:37.208Z,73.64
2023-02-13T23:15:07.629Z,73.91
2023-02-13T23:17:53.767Z,73.86
2023-02-13T23:20:24.692Z,72.12
2023-02-13T23:22:54.194Z,72.86
2023-02-13T23:25:25.431Z,73.78
2023-02-13T23:27:56.826Z,73.51
2023-02-13T23:30:25.967Z,73.84
2023-02-13T23:32:54.425Z,74.14
2023-02-13T23:35:24.649Z,74.06
2023-02-13T23:37:53.354Z,73.68
2023-02-13T23:40:22.297Z,74.02
2023-02-13T23:42:50.832Z,73.92
2023-02-13T23:45:19.536Z,73.68
2023-02-13T23:47:47.761Z,74.08
2023-02-13T23:50:16.248Z,74.31
2023-02-13T23:52:46.078Z,72.23
2023-02-13T23:55:14.584Z,73.17
2023-02-13T23:57:52.023Z,72.58
